createdAt,value
2022-11-30T00:00:47.542Z,7.36
2022-11-30T00:03:15.082Z,7.37
2022-11-30T00:05:42.628Z,7.37
2022-11-30T00:08:10.085Z,7.35
2022-11-30T00:10:38.688Z,7.37
2022-11-30T00:13:06.129Z,7.36
2022-11-30T00:15:35.016Z,7.36
2022-11-30T00:18:02.549Z,7.36
2022-11-30T00:20:30.728Z,7.35
2022-11-30T00:22:58.321Z,7.36
2022-11-30T00:25:25.951Z,7.35
2022-11-30T00:27:53.628Z,7.34
2022-11-30T00:30:21.196Z,7.35
2022-11-30T00:32:50.078Z,7.34
2022-11-30T00:35:18.833Z,7.34
2022-11-30T00:37:46.325Z,7.34
2022-11-30T00:40:14.367Z,7.33
2022-11-30T00:42:41.885Z,7.32
2022-11-30T00:45:09.807Z,7.32
2022-11-30T00:47:37.336Z,7.32
2022-11-30T00:50:07.209Z,7.31
2022-11-30T00:52:34.719Z,7.31
2022-11-30T00:55:04.196Z,7.31
2022-11-30T00:57:32.322Z,7.32
2022-11-30T00:59:59.794Z,7.32
2022-11-30T01:02:27.338Z,7.32
2022-11-30T01:04:54.880Z,7.31
2022-11-30T01:07:23.837Z,7.30
2022-11-30T01:09:51.373Z,7.30
2022-11-30T01:12:18.820Z,7.30
2022-11-30T01:14:46.479Z,7.30
2022-11-30T01:17:14.075Z,7.29
2022-11-30T01:19:41.612Z,7.28
2022-11-30T01:22:09.060Z,7.29
2022-11-30T01:24:37.953Z,7.29
2022-11-30T01:27:05.454Z,7.28
2022-11-30T01:29:32.895Z,7.27
2022-11-30T01:32:00.378Z,7.27
2022-11-30T01:34:27.943Z,7.28
2022-11-30T01:36:55.542Z,7.27
2022-11-30T01:39:23.215Z,7.27
2022-11-30T01:41:52.095Z,7.27
2022-11-30T01:44:38.402Z,7.28
2022-11-30T01:47:06.614Z,7.27
2022-11-30T01:49:34.418Z,7.25
2022-11-30T01:52:04.158Z,7.25
2022-11-30T01:54:33.531Z,7.25
2022-11-30T01:57:03.565Z,7.25
2022-11-30T01:59:31.074Z,7.23
2022-11-30T02:01:58.692Z,7.22
2022-11-30T02:04:27.567Z,7.21
2022-11-30T02:06:55.005Z,7.19
2022-11-30T02:09:22.480Z,7.17
2022-11-30T02:11:50.017Z,7.16
2022-11-30T02:14:22.261Z,7.13
2022-11-30T02:16:51.541Z,7.11
2022-11-30T02:19:43.601Z,7.08
2022-11-30T02:22:12.365Z,7.03
2022-11-30T02:24:46.576Z,7.00
2022-11-30T02:27:16.346Z,6.95
2022-11-30T02:29:45.309Z,6.92
2022-11-30T02:32:13.527Z,6.89
2022-11-30T02:34:40.972Z,6.86
2022-11-30T02:37:08.583Z,6.83
2022-11-30T02:39:36.069Z,6.80
2022-11-30T02:42:03.555Z,6.77
2022-11-30T02:44:31.411Z,6.75
2022-11-30T02:47:03.301Z,6.71
2022-11-30T02:49:32.264Z,6.69
2022-11-30T02:51:59.803Z,6.68
2022-11-30T02:54:27.344Z,6.66
2022-11-30T02:56:54.868Z,6.66
2022-11-30T02:59:22.326Z,6.64
2022-11-30T03:01:50.114Z,6.64
2022-11-30T03:04:19.020Z,6.62
2022-11-30T03:06:46.435Z,6.61
2022-11-30T03:09:14.293Z,6.62
2022-11-30T03:11:41.791Z,6.61
2022-11-30T03:14:09.275Z,6.61
2022-11-30T03:16:37.667Z,6.61
2022-11-30T03:19:05.448Z,6.60
2022-11-30T03:21:34.296Z,6.61
2022-11-30T03:24:01.812Z,6.59
2022-11-30T03:26:29.376Z,6.60
2022-11-30T03:28:56.830Z,6.60
2022-11-30T03:31:24.360Z,6.62
2022-11-30T03:33:51.935Z,6.62
2022-11-30T03:36:19.426Z,6.63
2022-11-30T03:38:48.664Z,6.64
2022-11-30T03:41:16.574Z,6.65
2022-11-30T03:43:44.091Z,6.66
2022-11-30T03:46:11.650Z,6.65
2022-11-30T03:48:41.006Z,6.67
2022-11-30T03:51:08.851Z,6.68
2022-11-30T03:53:36.340Z,6.69
2022-11-30T03:56:05.841Z,6.69
2022-11-30T03:58:33.325Z,6.69
2022-11-30T04:01:01.615Z,6.71
2022-11-30T04:03:29.325Z,6.71
2022-11-30T04:05:56.825Z,6.72
2022-11-30T04:08:24.365Z,6.72
2022-11-30T04:10:52.106Z,6.72
2022-11-30T04:13:21.066Z,6.72
2022-11-30T04:15:48.648Z,6.73
2022-11-30T04:18:16.228Z,6.74
2022-11-30T04:20:43.763Z,6.75
2022-11-30T04:23:11.617Z,6.75
2022-11-30T04:25:39.325Z,6.75
2022-11-30T04:28:06.802Z,6.75
2022-11-30T04:30:35.914Z,6.76
2022-11-30T04:33:03.607Z,6.75
2022-11-30T04:35:31.103Z,6.76
2022-11-30T04:37:58.589Z,6.76
2022-11-30T04:40:26.084Z,6.76
2022-11-30T04:42:53.527Z,6.75
2022-11-30T04:45:21.099Z,6.75
2022-11-30T04:47:49.983Z,6.75
2022-11-30T04:50:17.503Z,6.74
2022-11-30T04:52:45.004Z,6.74
2022-11-30T04:55:12.487Z,6.73
2022-11-30T04:57:39.896Z,6.72
2022-11-30T05:00:08.121Z,6.70
2022-11-30T05:02:35.601Z,6.69
2022-11-30T05:05:04.552Z,6.67
2022-11-30T05:07:32.082Z,6.67
2022-11-30T05:09:59.634Z,6.67
2022-11-30T05:12:27.085Z,6.66
2022-11-30T05:14:54.572Z,6.65
2022-11-30T05:17:22.048Z,6.65
2022-11-30T05:19:49.545Z,6.64
2022-11-30T05:22:18.687Z,6.66
2022-11-30T05:24:46.370Z,6.65
2022-11-30T05:27:19.381Z,6.66
2022-11-30T05:29:49.788Z,6.65
2022-11-30T05:32:17.242Z,6.65
2022-11-30T05:34:51.028Z,6.65
2022-11-30T05:37:20.833Z,6.66
2022-11-30T05:39:48.319Z,6.65
2022-11-30T05:42:15.834Z,6.66
2022-11-30T05:44:43.534Z,6.65
2022-11-30T05:47:11.057Z,6.65
2022-11-30T05:49:38.612Z,6.65
2022-11-30T05:52:06.246Z,6.64
2022-11-30T05:54:35.727Z,6.64
2022-11-30T05:57:03.260Z,6.63
2022-11-30T05:59:30.740Z,6.64
2022-11-30T06:01:58.416Z,6.64
2022-11-30T06:04:26.052Z,6.64
2022-11-30T06:06:55.752Z,6.64
2022-11-30T06:09:23.515Z,6.64
2022-11-30T06:11:52.472Z,6.64
2022-11-30T06:14:20.072Z,6.63
2022-11-30T06:16:47.566Z,6.62
2022-11-30T06:19:15.106Z,6.61
2022-11-30T06:21:42.566Z,6.61
2022-11-30T06:24:10.690Z,6.61
2022-11-30T06:26:38.148Z,6.61
2022-11-30T06:29:07.218Z,6.61
2022-11-30T06:31:34.789Z,6.63
2022-11-30T06:34:02.345Z,6.62
2022-11-30T06:36:35.468Z,6.63
2022-11-30T06:39:03.886Z,6.62
2022-11-30T06:41:31.420Z,6.63
2022-11-30T06:43:58.924Z,6.63
2022-11-30T06:46:27.946Z,6.63
2022-11-30T06:48:55.702Z,6.64
2022-11-30T06:51:23.199Z,6.65
2022-11-30T06:53:50.669Z,6.66
2022-11-30T06:56:18.186Z,6.67
2022-11-30T06:58:45.856Z,6.67
2022-11-30T07:01:14.425Z,6.67
2022-11-30T07:03:43.492Z,6.68
2022-11-30T07:06:11.718Z,6.71
2022-11-30T07:08:39.619Z,6.69
2022-11-30T07:11:07.180Z,6.69
2022-11-30T07:13:34.745Z,6.71
2022-11-30T07:16:03.909Z,6.69
2022-11-30T07:18:32.691Z,6.69
2022-11-30T07:21:01.698Z,6.69
2022-11-30T07:23:50.797Z,6.68
2022-11-30T07:26:22.185Z,6.65
2022-11-30T07:28:51.424Z,6.64
2022-11-30T07:31:20.134Z,6.65
2022-11-30T07:33:48.272Z,6.64
2022-11-30T07:36:17.607Z,6.64
2022-11-30T07:38:45.676Z,6.63
2022-11-30T07:41:13.184Z,6.62
2022-11-30T07:43:41.012Z,6.61
2022-11-30T07:46:08.740Z,6.62
2022-11-30T07:48:36.251Z,6.61
2022-11-30T07:51:04.268Z,6.62
2022-11-30T07:53:33.103Z,6.62
2022-11-30T07:56:04.655Z,6.64
2022-11-30T07:58:32.225Z,6.64
2022-11-30T08:01:03.455Z,6.65
2022-11-30T08:03:36.464Z,6.65
2022-11-30T08:06:05.208Z,6.65
2022-11-30T08:08:34.563Z,6.66
2022-11-30T08:11:02.255Z,6.65
2022-11-30T08:13:29.876Z,6.65
2022-11-30T08:15:57.413Z,6.66
2022-11-30T08:18:24.862Z,6.67
2022-11-30T08:20:57.349Z,6.66
2022-11-30T08:23:24.894Z,6.67
2022-11-30T08:25:53.799Z,6.68
2022-11-30T08:28:21.317Z,6.68
2022-11-30T08:30:49.009Z,6.69
2022-11-30T08:33:16.598Z,6.70
2022-11-30T08:35:44.148Z,6.73
2022-11-30T08:38:11.641Z,6.73
2022-11-30T08:40:39.141Z,6.73
2022-11-30T08:43:08.230Z,6.74
2022-11-30T08:45:35.730Z,6.75
2022-11-30T08:48:03.205Z,6.76
2022-11-30T08:50:30.641Z,6.76
2022-11-30T08:53:01.812Z,6.78
2022-11-30T08:55:33.691Z,6.78
2022-11-30T08:58:01.209Z,6.78
2022-11-30T09:00:30.062Z,6.80
2022-11-30T09:02:57.771Z,6.80
2022-11-30T09:05:25.321Z,6.83
2022-11-30T09:07:52.856Z,6.83
2022-11-30T09:10:20.408Z,6.82
2022-11-30T09:12:47.852Z,6.81
2022-11-30T09:15:15.288Z,6.83
2022-11-30T09:17:44.732Z,6.83
2022-11-30T09:20:12.734Z,6.84
2022-11-30T09:22:40.216Z,6.84
2022-11-30T09:25:08.220Z,6.85
2022-11-30T09:27:35.865Z,6.86
2022-11-30T09:30:03.319Z,6.87
2022-11-30T09:32:30.754Z,6.89
2022-11-30T09:34:59.622Z,6.88
2022-11-30T09:37:27.127Z,6.89
2022-11-30T09:39:54.648Z,6.89
2022-11-30T09:42:27.088Z,6.91
2022-11-30T09:44:56.584Z,6.92
2022-11-30T09:47:37.797Z,6.91
2022-11-30T09:50:11.075Z,6.92
2022-11-30T09:52:39.544Z,6.92
2022-11-30T09:55:08.706Z,6.92
2022-11-30T09:57:42.558Z,6.91
2022-11-30T10:00:12.446Z,6.91
2022-11-30T10:02:40.110Z,6.92
2022-11-30T10:05:14.446Z,6.91
2022-11-30T10:07:45.740Z,6.91
2022-11-30T10:10:31.836Z,6.91
2022-11-30T10:13:02.343Z,6.91
2022-11-30T10:15:32.524Z,6.89
2022-11-30T10:18:02.680Z,6.89
2022-11-30T10:20:41.651Z,6.89
2022-11-30T10:23:11.864Z,6.88
2022-11-30T10:25:42.011Z,6.89
2022-11-30T10:28:44.898Z,6.90
2022-11-30T10:31:00.579Z,6.89
2022-11-30T10:33:31.451Z,6.89
2022-11-30T10:36:05.707Z,6.88
2022-11-30T10:38:34.729Z,6.88
2022-11-30T10:41:03.544Z,6.88
2022-11-30T10:43:32.871Z,6.87
2022-11-30T10:46:00.413Z,6.86
2022-11-30T10:48:30.294Z,6.87
2022-11-30T10:50:57.820Z,6.87
2022-11-30T10:53:26.690Z,6.86
2022-11-30T10:55:59.440Z,6.85
2022-11-30T10:58:29.016Z,6.83
2022-11-30T11:01:00.266Z,6.80
2022-11-30T11:03:27.722Z,6.77
2022-11-30T11:06:05.869Z,6.77
2022-11-30T11:08:35.259Z,6.76
2022-11-30T11:11:02.747Z,6.75
2022-11-30T11:13:37.775Z,6.76
2022-11-30T11:16:06.266Z,6.77
2022-11-30T11:18:34.083Z,6.77
2022-11-30T11:21:06.190Z,6.76
2022-11-30T11:23:36.586Z,6.74
2022-11-30T11:26:04.119Z,6.71
2022-11-30T11:28:31.695Z,6.69
2022-11-30T11:30:59.937Z,6.68
2022-11-30T11:33:28.695Z,6.66
2022-11-30T11:35:56.684Z,6.65
2022-11-30T11:38:25.811Z,6.65
2022-11-30T11:40:55.309Z,6.64
2022-11-30T11:43:22.754Z,6.64
2022-11-30T11:45:53.923Z,6.64
2022-11-30T11:48:42.179Z,6.63
2022-11-30T11:51:10.402Z,6.62
2022-11-30T11:53:46.310Z,6.63
2022-11-30T11:56:21.877Z,6.65
2022-11-30T11:58:50.667Z,6.65
2022-11-30T12:04:14.195Z,6.66
2022-11-30T12:06:41.647Z,6.66
2022-11-30T12:09:13.682Z,6.66
2022-11-30T12:11:43.792Z,6.66
2022-11-30T12:14:12.471Z,6.68
2022-11-30T12:16:43.138Z,6.67
2022-11-30T12:19:12.755Z,6.66
2022-11-30T12:21:43.284Z,6.66
2022-11-30T12:24:18.631Z,6.67
2022-11-30T12:26:48.382Z,6.69
2022-11-30T12:29:22.812Z,6.69
2022-11-30T12:32:02.958Z,6.72
2022-11-30T12:34:35.330Z,6.73
2022-11-30T12:37:04.893Z,6.70
2022-11-30T12:39:33.759Z,6.69
2022-11-30T12:42:04.183Z,6.68
2022-11-30T12:44:40.255Z,6.67
2022-11-30T12:47:13.002Z,6.65
2022-11-30T12:49:44.955Z,6.64
2022-11-30T12:52:20.525Z,6.64
2022-11-30T12:54:50.245Z,6.63
2022-11-30T12:57:20.066Z,6.65
2022-11-30T12:59:49.065Z,6.68
2022-11-30T13:02:26.319Z,6.68
2022-11-30T13:04:58.300Z,6.70
2022-11-30T13:07:27.126Z,6.71
2022-11-30T13:09:55.192Z,6.72
2022-11-30T13:12:25.378Z,6.72
2022-11-30T13:14:53.131Z,6.72
2022-11-30T13:17:20.628Z,6.71
2022-11-30T13:19:50.941Z,6.68
2022-11-30T13:22:20.690Z,6.67
2022-11-30T13:24:48.874Z,6.66
2022-11-30T13:28:39.290Z,6.65
2022-11-30T13:31:07.159Z,6.66
2022-11-30T13:33:48.234Z,6.66
2022-11-30T13:36:30.191Z,6.66
2022-11-30T13:39:30.566Z,6.65
2022-11-30T13:42:25.889Z,6.66
2022-11-30T13:44:54.763Z,6.65
2022-11-30T13:47:27.879Z,6.62
2022-11-30T13:49:55.986Z,6.62
2022-11-30T13:52:38.354Z,6.58
2022-11-30T13:55:07.665Z,6.58
2022-11-30T13:57:53.726Z,6.58
2022-11-30T14:00:40.622Z,6.56
2022-11-30T14:03:18.545Z,6.57
2022-11-30T14:05:46.615Z,6.56
2022-11-30T14:08:18.758Z,6.57
2022-11-30T14:12:17.727Z,6.58
2022-11-30T14:14:49.651Z,6.59
2022-11-30T14:17:24.626Z,6.58
2022-11-30T14:19:52.575Z,6.58
2022-11-30T14:22:20.038Z,6.59
2022-11-30T14:24:48.182Z,6.59
2022-11-30T14:27:16.819Z,6.56
2022-11-30T14:29:44.290Z,6.53
2022-11-30T14:32:13.533Z,6.50
2022-11-30T14:34:42.069Z,6.51
2022-11-30T14:37:13.475Z,6.51
2022-11-30T14:39:43.471Z,6.52
2022-11-30T14:42:17.359Z,6.53
2022-11-30T14:44:44.811Z,6.54
2022-11-30T14:47:17.493Z,6.54
2022-11-30T14:49:48.619Z,6.54
2022-11-30T14:52:17.071Z,6.54
2022-11-30T14:54:47.046Z,6.53
2022-11-30T14:57:17.300Z,6.54
2022-11-30T14:59:47.446Z,6.54
2022-11-30T15:02:21.597Z,6.53
2022-11-30T15:06:03.560Z,6.54
2022-11-30T15:08:34.219Z,6.54
2022-11-30T15:11:03.566Z,6.52
2022-11-30T15:13:30.951Z,6.51
2022-11-30T15:15:58.507Z,6.50
2022-11-30T15:18:26.675Z,6.48
2022-11-30T15:22:01.183Z,6.45
2022-11-30T15:24:29.760Z,6.44
2022-11-30T15:26:57.993Z,6.44
2022-11-30T15:29:27.289Z,6.45
2022-11-30T15:31:55.102Z,6.45
2022-11-30T15:34:23.452Z,6.46
2022-11-30T15:36:50.937Z,6.47
2022-11-30T15:39:20.837Z,6.47
2022-11-30T15:41:48.322Z,6.47
2022-11-30T15:44:26.032Z,6.47
2022-11-30T15:46:57.515Z,6.47
2022-11-30T15:49:25.694Z,6.46
2022-11-30T15:52:00.229Z,6.46
2022-11-30T15:54:44.831Z,6.46
2022-11-30T15:57:12.326Z,6.45
2022-11-30T15:59:39.867Z,6.45
2022-11-30T16:02:14.285Z,6.44
2022-11-30T16:05:05.167Z,6.44
2022-11-30T16:07:34.588Z,6.45
2022-11-30T16:10:05.456Z,6.44
2022-11-30T16:12:32.929Z,6.46
2022-11-30T16:15:00.434Z,6.46
2022-11-30T16:17:30.145Z,6.44
2022-11-30T16:19:57.766Z,6.44
2022-11-30T16:22:25.266Z,6.44
2022-11-30T16:24:52.715Z,6.44
2022-11-30T16:27:22.563Z,6.44
2022-11-30T16:29:52.666Z,6.44
2022-11-30T16:32:20.587Z,6.45
2022-11-30T16:34:48.465Z,6.45
2022-11-30T16:37:16.009Z,6.43
2022-11-30T16:39:43.500Z,6.41
2022-11-30T16:42:12.318Z,6.40
2022-11-30T16:44:41.155Z,6.39
2022-11-30T16:47:08.681Z,6.40
2022-11-30T16:49:36.158Z,6.40
2022-11-30T16:52:03.916Z,6.41
2022-11-30T16:54:31.504Z,6.41
2022-11-30T16:56:59.023Z,6.40
2022-11-30T16:59:26.960Z,6.39
2022-11-30T17:01:55.887Z,6.38
2022-11-30T17:04:23.921Z,6.39
2022-11-30T17:06:54.679Z,6.37
2022-11-30T17:09:24.797Z,6.36
2022-11-30T17:11:52.490Z,6.38
2022-11-30T17:14:20.312Z,6.38
2022-11-30T17:16:47.865Z,6.37
2022-11-30T17:19:16.916Z,6.37
2022-11-30T17:21:44.861Z,6.37
2022-11-30T17:24:12.555Z,6.37
2022-11-30T17:26:40.042Z,6.37
2022-11-30T17:29:07.462Z,6.34
2022-11-30T17:31:35.604Z,6.31
2022-11-30T17:34:03.114Z,6.29
2022-11-30T17:36:32.009Z,6.28
2022-11-30T17:38:59.490Z,6.29
2022-11-30T17:41:26.936Z,6.28
2022-11-30T17:43:54.370Z,6.31
2022-11-30T17:46:22.593Z,6.31
2022-11-30T17:48:50.410Z,6.32
2022-11-30T17:51:18.001Z,6.33
2022-11-30T17:53:46.878Z,6.32
2022-11-30T17:56:14.954Z,6.33
2022-11-30T17:58:44.333Z,6.32
2022-11-30T18:01:15.914Z,6.32
2022-11-30T18:03:43.463Z,6.31
2022-11-30T18:06:10.957Z,6.31
2022-11-30T18:08:40.339Z,6.30
2022-11-30T18:11:12.505Z,6.26
2022-11-30T18:13:40.002Z,6.25
2022-11-30T18:16:08.300Z,6.23
2022-11-30T18:18:35.779Z,6.23
2022-11-30T18:21:06.527Z,6.22
2022-11-30T18:23:35.053Z,6.21
2022-11-30T18:26:02.709Z,6.20
2022-11-30T18:28:31.595Z,6.18
2022-11-30T18:30:59.397Z,6.16
2022-11-30T18:33:27.020Z,6.15
2022-11-30T18:35:57.760Z,6.13
2022-11-30T18:38:25.290Z,6.12
2022-11-30T18:40:52.921Z,6.11
2022-11-30T18:44:30.031Z,6.11
2022-11-30T18:46:57.456Z,6.12
2022-11-30T18:49:24.987Z,6.13
2022-11-30T18:51:52.460Z,6.11
2022-11-30T18:54:20.072Z,6.11
2022-11-30T18:56:47.504Z,6.09
2022-11-30T18:59:15.365Z,6.08
2022-11-30T19:01:44.281Z,6.08
2022-11-30T19:05:13.229Z,6.09
2022-11-30T19:07:41.163Z,6.09
2022-11-30T19:10:09.533Z,6.09
2022-11-30T19:12:36.979Z,6.07
2022-11-30T19:15:04.810Z,6.06
2022-11-30T19:17:32.358Z,6.08
2022-11-30T19:20:00.648Z,6.08
2022-11-30T19:22:31.149Z,6.08
2022-11-30T19:24:58.643Z,6.08
2022-11-30T19:27:26.116Z,6.09
2022-11-30T19:29:53.639Z,6.10
2022-11-30T19:32:21.156Z,6.11
2022-11-30T19:34:49.117Z,6.12
2022-11-30T19:37:16.801Z,6.11
2022-11-30T19:39:45.627Z,6.12
2022-11-30T19:42:13.124Z,6.11
2022-11-30T19:44:40.587Z,6.11
2022-11-30T19:47:08.160Z,6.10
2022-11-30T19:49:35.639Z,6.11
2022-11-30T19:52:03.125Z,6.09
2022-11-30T19:54:30.726Z,6.08
2022-11-30T19:56:59.589Z,6.08
2022-11-30T19:59:27.104Z,6.07
2022-11-30T20:01:54.709Z,6.05
2022-11-30T20:04:22.310Z,6.06
2022-11-30T20:06:49.873Z,6.05
2022-11-30T20:09:17.529Z,6.08
2022-11-30T20:11:45.100Z,6.09
2022-11-30T20:14:17.724Z,6.09
2022-11-30T20:16:45.232Z,6.10
2022-11-30T20:19:12.729Z,6.10
2022-11-30T20:21:40.174Z,6.11
2022-11-30T20:24:08.443Z,6.11
2022-11-30T20:26:36.387Z,6.09
2022-11-30T20:29:04.485Z,6.06
2022-11-30T20:31:34.761Z,6.05
2022-11-30T20:34:02.277Z,6.03
2022-11-30T20:36:30.057Z,6.03
2022-11-30T20:38:58.724Z,6.03
2022-11-30T20:41:26.683Z,6.03
2022-11-30T20:43:54.232Z,6.02
2022-11-30T20:46:22.202Z,6.02
2022-11-30T20:48:51.336Z,6.04
2022-11-30T20:51:30.714Z,6.06
2022-11-30T20:53:59.974Z,6.06
2022-11-30T20:56:27.507Z,6.07
2022-11-30T20:58:55.016Z,6.08
2022-11-30T21:01:22.980Z,6.08
2022-11-30T21:03:51.933Z,6.07
2022-11-30T21:06:19.416Z,6.07
2022-11-30T21:08:46.864Z,6.05
2022-11-30T21:11:15.422Z,6.04
2022-11-30T21:13:43.949Z,6.04
2022-11-30T21:16:11.641Z,6.03
2022-11-30T21:18:39.863Z,6.03
2022-11-30T21:21:10.827Z,6.03
2022-11-30T21:23:38.391Z,6.02
2022-11-30T21:26:06.087Z,6.03
2022-11-30T21:28:37.789Z,6.04
2022-11-30T21:31:05.893Z,6.05
2022-11-30T21:33:33.678Z,6.06
2022-11-30T21:36:01.179Z,6.06
2022-11-30T21:38:30.022Z,6.06
2022-11-30T21:40:58.211Z,6.06
2022-11-30T21:43:25.799Z,6.07
2022-11-30T21:46:00.405Z,6.05
2022-11-30T21:48:29.445Z,6.05
2022-11-30T21:51:00.844Z,6.04
2022-11-30T21:53:28.494Z,6.05
2022-11-30T21:55:57.587Z,6.05
2022-11-30T21:58:25.092Z,6.06
2022-11-30T22:00:55.868Z,6.07
2022-11-30T22:03:23.424Z,6.07
2022-11-30T22:06:00.990Z,6.07
2022-11-30T22:08:28.491Z,6.08
2022-11-30T22:11:00.105Z,6.08
2022-11-30T22:13:27.576Z,6.08
2022-11-30T22:15:58.048Z,6.08
2022-11-30T22:18:25.721Z,6.06
2022-11-30T22:20:53.389Z,6.05
2022-11-30T22:23:21.202Z,6.03
2022-11-30T22:25:48.702Z,6.03
2022-11-30T22:28:17.569Z,6.03
2022-11-30T22:30:45.546Z,6.04
2022-11-30T22:33:13.074Z,6.04
2022-11-30T22:35:40.561Z,6.04
2022-11-30T22:38:08.083Z,6.03
2022-11-30T22:40:35.571Z,6.04
2022-11-30T22:43:03.191Z,6.02
2022-11-30T22:45:31.982Z,6.04
2022-11-30T22:47:59.524Z,6.04
2022-11-30T22:50:28.103Z,6.06
2022-11-30T22:53:02.774Z,6.06
2022-11-30T22:55:32.374Z,6.05
2022-11-30T22:57:59.970Z,6.06
2022-11-30T23:00:27.411Z,6.06
2022-11-30T23:02:56.406Z,6.06
2022-11-30T23:05:23.896Z,6.06
2022-11-30T23:07:51.474Z,6.06
2022-11-30T23:10:19.559Z,6.07
2022-11-30T23:13:01.960Z,6.07
2022-11-30T23:15:29.484Z,6.07
2022-11-30T23:17:58.327Z,6.07
2022-11-30T23:20:25.869Z,6.07
2022-11-30T23:22:53.419Z,6.05
2022-11-30T23:25:20.918Z,6.05
2022-11-30T23:27:48.362Z,6.04
2022-11-30T23:30:16.064Z,6.03
2022-11-30T23:32:43.550Z,6.03
2022-11-30T23:35:12.503Z,6.05
2022-11-30T23:37:40.070Z,6.06
2022-11-30T23:40:08.518Z,6.05
2022-11-30T23:42:36.012Z,6.04
2022-11-30T23:45:03.636Z,6.06
2022-11-30T23:47:31.200Z,6.04
2022-11-30T23:49:58.663Z,6.05
2022-11-30T23:52:27.496Z,6.05
2022-11-30T23:54:54.962Z,6.05
2022-11-30T23:57:22.739Z,6.05
2022-11-30T23:59:50.522Z,6.06
